createdAt,value
2023-01-23T00:02:23.322Z,9.17
2023-01-23T00:04:49.651Z,9.10
2023-01-23T00:07:15.989Z,7.93
2023-01-23T00:09:42.291Z,8.13
2023-01-23T00:12:08.697Z,7.77
2023-01-23T00:14:35.113Z,8.40
2023-01-23T00:17:01.471Z,8.27
2023-01-23T00:19:27.971Z,9.10
2023-01-23T00:21:55.372Z,7.87
2023-01-23T00:24:21.774Z,8.73
2023-01-23T00:26:48.102Z,8.03
2023-01-23T00:29:15.594Z,8.37
2023-01-23T00:31:42.239Z,8.43
2023-01-23T00:34:11.088Z,8.50
2023-01-23T00:36:38.407Z,8.43
2023-01-23T00:39:06.767Z,8.40
2023-01-23T00:41:33.193Z,8.40
2023-01-23T00:43:59.486Z,8.30
2023-01-23T00:46:26.047Z,9.60
2023-01-23T00:48:52.457Z,9.27
2023-01-23T00:51:19.144Z,8.17
2023-01-23T00:53:46.161Z,8.00
2023-01-23T00:56:12.520Z,7.60
2023-01-23T00:58:40.499Z,8.67
2023-01-23T01:01:06.971Z,8.87
2023-01-23T01:03:33.413Z,8.30
2023-01-23T01:05:59.824Z,8.67
2023-01-23T01:08:26.124Z,9.00
2023-01-23T01:10:52.553Z,8.17
2023-01-23T01:13:21.411Z,8.23
2023-01-23T01:15:48.837Z,9.07
2023-01-23T01:18:15.234Z,8.73
2023-01-23T01:20:42.027Z,6.80
2023-01-23T01:23:08.779Z,9.20
2023-01-23T01:25:35.124Z,8.83
2023-01-23T01:28:01.717Z,8.53
2023-01-23T01:30:29.103Z,9.07
2023-01-23T01:32:55.657Z,8.47
2023-01-23T01:35:22.417Z,9.23
2023-01-23T01:37:49.178Z,9.07
2023-01-23T01:40:19.216Z,8.47
2023-01-23T01:42:47.951Z,8.73
2023-01-23T01:45:32.812Z,9.57
2023-01-23T01:47:59.241Z,9.30
2023-01-23T01:50:25.635Z,9.07
2023-01-23T01:52:51.940Z,9.43
2023-01-23T01:55:18.262Z,8.70
2023-01-23T01:57:45.304Z,9.00
2023-01-23T02:00:16.090Z,9.00
2023-01-23T02:02:56.161Z,10.13
2023-01-23T02:05:24.507Z,9.93
2023-01-23T02:07:56.340Z,9.63
2023-01-23T02:10:23.217Z,9.60
2023-01-23T02:12:50.322Z,9.60
2023-01-23T02:15:17.161Z,8.80
2023-01-23T02:17:44.315Z,8.27
2023-01-23T02:20:14.043Z,9.33
2023-01-23T02:22:46.763Z,9.13
2023-01-23T02:25:16.131Z,8.43
2023-01-23T02:27:42.447Z,8.50
2023-01-23T02:30:09.133Z,9.00
2023-01-23T02:32:35.875Z,8.93
2023-01-23T02:35:08.248Z,8.27
2023-01-23T02:37:35.540Z,9.63
2023-01-23T02:40:03.426Z,8.53
2023-01-23T02:42:30.714Z,8.90
2023-01-23T02:44:58.084Z,8.83
2023-01-23T02:47:25.363Z,9.07
2023-01-23T02:49:51.757Z,7.97
2023-01-23T02:52:18.187Z,8.33
2023-01-23T02:54:44.609Z,8.80
2023-01-23T02:57:10.983Z,9.17
2023-01-23T02:59:56.091Z,8.40
2023-01-23T03:02:22.450Z,9.37
2023-01-23T03:04:48.866Z,9.90
2023-01-23T03:07:15.672Z,10.20
2023-01-23T03:09:42.547Z,9.57
2023-01-23T03:12:09.242Z,9.40
2023-01-23T03:14:35.553Z,10.10
2023-01-23T03:17:01.999Z,9.07
2023-01-23T03:19:28.434Z,10.30
2023-01-23T03:21:54.874Z,10.50
2023-01-23T03:24:21.339Z,10.93
2023-01-23T03:26:48.341Z,11.17
2023-01-23T03:29:38.132Z,10.70
2023-01-23T03:32:06.953Z,9.63
2023-01-23T03:34:33.426Z,9.93
2023-01-23T03:37:01.220Z,9.43
2023-01-23T03:39:46.049Z,9.97
2023-01-23T03:42:12.396Z,9.80
2023-01-23T03:44:38.783Z,10.07
2023-01-23T03:47:05.173Z,10.73
2023-01-23T03:49:31.667Z,10.47
2023-01-23T03:51:58.299Z,10.00
2023-01-23T03:54:24.622Z,11.17
2023-01-23T03:56:51.022Z,10.47
2023-01-23T03:59:17.341Z,10.07
2023-01-23T04:01:43.647Z,10.97
2023-01-23T04:04:10.366Z,10.43
2023-01-23T04:06:36.688Z,10.53
2023-01-23T04:09:03.098Z,9.87
2023-01-23T04:11:29.462Z,9.50
2023-01-23T04:13:55.847Z,9.83
2023-01-23T04:16:22.831Z,10.77
2023-01-23T04:18:50.020Z,11.23
2023-01-23T04:21:16.662Z,10.33
2023-01-23T04:23:43.077Z,10.70
2023-01-23T04:26:09.422Z,9.90
2023-01-23T04:28:35.791Z,11.63
2023-01-23T04:31:02.209Z,10.87
2023-01-23T04:33:28.600Z,10.30
2023-01-23T04:35:55.925Z,11.57
2023-01-23T04:38:22.903Z,10.10
2023-01-23T04:40:49.727Z,10.70
2023-01-23T04:43:16.196Z,10.20
2023-01-23T04:45:43.848Z,10.87
2023-01-23T04:48:10.933Z,10.97
2023-01-23T04:50:37.274Z,11.30
2023-01-23T04:53:04.092Z,11.07
2023-01-23T04:55:31.993Z,9.63
2023-01-23T04:57:58.347Z,10.27
2023-01-23T05:00:24.808Z,12.00
2023-01-23T05:02:51.684Z,11.20
2023-01-23T05:05:20.766Z,11.00
2023-01-23T05:07:47.853Z,10.17
2023-01-23T05:10:15.227Z,10.87
2023-01-23T05:12:41.611Z,10.70
2023-01-23T05:15:08.234Z,11.47
2023-01-23T05:17:34.546Z,11.93
2023-01-23T05:20:00.943Z,11.70
2023-01-23T05:22:27.221Z,11.33
2023-01-23T05:24:53.693Z,12.13
2023-01-23T05:27:20.026Z,11.93
2023-01-23T05:29:46.459Z,12.30
2023-01-23T05:32:12.791Z,12.30
2023-01-23T05:34:39.291Z,11.57
2023-01-23T05:37:05.619Z,12.43
2023-01-23T05:39:33.151Z,12.20
2023-01-23T05:41:59.492Z,11.63
2023-01-23T05:44:26.021Z,11.90
2023-01-23T05:46:52.323Z,11.57
2023-01-23T05:49:18.663Z,12.30
2023-01-23T05:51:44.998Z,12.50
2023-01-23T05:54:11.343Z,12.73
2023-01-23T05:56:37.661Z,12.33
2023-01-23T05:59:05.444Z,11.80
2023-01-23T06:01:31.834Z,11.87
2023-01-23T06:03:58.294Z,12.20
2023-01-23T06:06:24.641Z,12.47
2023-01-23T06:08:51.026Z,12.43
2023-01-23T06:11:17.354Z,11.67
2023-01-23T06:13:43.707Z,12.23
2023-01-23T06:16:10.849Z,11.47
2023-01-23T06:18:37.364Z,14.00
2023-01-23T06:21:04.234Z,11.80
2023-01-23T06:23:30.757Z,11.90
2023-01-23T06:26:01.557Z,10.50
2023-01-23T06:28:27.936Z,12.20
2023-01-23T06:30:54.443Z,13.33
2023-01-23T06:33:20.833Z,14.10
2023-01-23T06:35:47.198Z,12.50
2023-01-23T06:38:14.562Z,10.30
2023-01-23T06:40:40.895Z,12.07
2023-01-23T06:43:07.196Z,12.03
2023-01-23T06:45:33.518Z,11.77
2023-01-23T06:47:59.924Z,12.17
2023-01-23T06:50:26.267Z,11.77
2023-01-23T06:52:52.612Z,12.03
2023-01-23T06:55:19.117Z,12.17
2023-01-23T06:57:45.542Z,13.20
2023-01-23T07:00:12.254Z,12.40
2023-01-23T07:02:39.261Z,13.40
2023-01-23T07:05:05.767Z,13.53
2023-01-23T07:07:32.223Z,10.93
2023-01-23T07:09:58.565Z,13.27
2023-01-23T07:12:24.891Z,13.40
2023-01-23T07:14:51.300Z,12.43
2023-01-23T07:17:17.650Z,11.83
2023-01-23T07:19:44.024Z,12.83
2023-01-23T07:22:10.310Z,12.43
2023-01-23T07:24:36.660Z,12.23
2023-01-23T07:27:02.970Z,13.00
2023-01-23T07:29:29.350Z,12.07
2023-01-23T07:31:55.739Z,11.60
2023-01-23T07:34:22.195Z,12.20
2023-01-23T07:36:48.540Z,12.57
2023-01-23T07:39:16.123Z,12.90
2023-01-23T07:41:43.854Z,13.20
2023-01-23T07:44:16.732Z,13.10
2023-01-23T07:46:43.540Z,14.07
2023-01-23T07:49:09.854Z,11.63
2023-01-23T07:51:36.373Z,13.20
2023-01-23T07:54:02.729Z,11.93
2023-01-23T07:56:29.112Z,10.87
2023-01-23T07:58:57.422Z,12.07
2023-01-23T08:01:24.000Z,13.57
2023-01-23T08:03:50.385Z,11.97
2023-01-23T08:06:16.788Z,14.00
2023-01-23T08:08:43.173Z,12.93
2023-01-23T08:11:13.096Z,13.93
2023-01-23T08:13:39.725Z,13.60
2023-01-23T08:16:07.159Z,13.03
2023-01-23T08:18:33.740Z,13.73
2023-01-23T08:21:01.194Z,13.10
2023-01-23T08:23:28.539Z,13.03
2023-01-23T08:25:55.755Z,11.97
2023-01-23T08:28:22.848Z,12.23
2023-01-23T08:30:49.693Z,12.47
2023-01-23T08:33:16.288Z,12.23
2023-01-23T08:35:52.893Z,12.90
2023-01-23T08:38:19.425Z,13.17
2023-01-23T08:40:46.532Z,13.57
2023-01-23T08:43:14.165Z,13.57
2023-01-23T08:45:40.948Z,13.97
2023-01-23T08:48:07.971Z,13.67
2023-01-23T08:50:34.663Z,13.07
2023-01-23T08:53:01.037Z,14.57
2023-01-23T08:55:29.210Z,13.40
2023-01-23T08:57:55.539Z,14.53
2023-01-23T09:00:22.432Z,13.63
2023-01-23T09:02:49.054Z,12.77
2023-01-23T09:05:15.498Z,14.43
2023-01-23T09:07:41.933Z,13.67
2023-01-23T09:10:08.723Z,13.07
2023-01-23T09:12:35.005Z,14.60
2023-01-23T09:15:01.329Z,13.80
2023-01-23T09:17:27.750Z,14.10
2023-01-23T09:19:54.162Z,14.73
2023-01-23T09:22:20.514Z,13.43
2023-01-23T09:24:47.910Z,13.43
2023-01-23T09:27:14.448Z,13.73
2023-01-23T09:29:41.876Z,13.40
2023-01-23T09:32:08.328Z,15.07
2023-01-23T09:34:34.647Z,14.27
2023-01-23T09:37:02.360Z,15.23
2023-01-23T09:39:28.684Z,15.17
2023-01-23T09:41:55.515Z,15.10
2023-01-23T09:44:25.537Z,15.43
2023-01-23T09:46:54.997Z,15.57
2023-01-23T09:49:27.637Z,15.20
2023-01-23T09:52:13.581Z,13.97
2023-01-23T09:54:46.506Z,14.90
2023-01-23T09:57:15.966Z,14.70
2023-01-23T09:59:58.793Z,13.77
2023-01-23T10:02:27.527Z,14.17
2023-01-23T10:04:54.276Z,13.77
2023-01-23T10:07:27.318Z,14.50
2023-01-23T10:10:12.622Z,15.00
2023-01-23T10:13:09.200Z,15.10
2023-01-23T10:15:38.548Z,14.57
2023-01-23T10:18:04.825Z,14.27
2023-01-23T10:20:51.347Z,15.10
2023-01-23T10:23:23.587Z,15.60
2023-01-23T10:25:50.471Z,14.60
2023-01-23T10:28:38.936Z,15.03
2023-01-23T10:31:08.468Z,16.53
2023-01-23T10:33:44.398Z,15.67
2023-01-23T10:36:23.674Z,16.03
2023-01-23T10:38:59.709Z,15.53
2023-01-23T10:41:26.158Z,16.47
2023-01-23T10:43:53.980Z,16.37
2023-01-23T10:46:31.829Z,14.37
2023-01-23T10:48:59.473Z,14.40
2023-01-23T10:51:39.479Z,16.77
2023-01-23T10:54:31.938Z,15.03
2023-01-23T10:57:08.315Z,13.27
2023-01-23T10:59:37.158Z,15.97
2023-01-23T11:02:12.755Z,15.17
2023-01-23T11:04:39.834Z,14.47
2023-01-23T11:07:16.191Z,13.83
2023-01-23T11:10:04.957Z,15.23
2023-01-23T11:12:33.076Z,14.50
2023-01-23T11:15:18.444Z,14.40
2023-01-23T11:17:44.987Z,12.87
2023-01-23T11:20:21.289Z,14.47
2023-01-23T11:22:59.722Z,13.27
2023-01-23T11:25:29.261Z,13.60
2023-01-23T11:28:00.047Z,14.67
2023-01-23T11:30:35.958Z,14.07
2023-01-23T11:33:25.749Z,14.57
2023-01-23T11:35:58.476Z,13.50
2023-01-23T11:38:30.814Z,14.47
2023-01-23T11:40:57.814Z,15.97
2023-01-23T11:43:24.310Z,13.40
2023-01-23T11:45:50.754Z,12.20
2023-01-23T11:48:29.382Z,11.53
2023-01-23T11:51:02.969Z,11.77
2023-01-23T11:53:41.425Z,10.13
2023-01-23T11:56:08.421Z,9.80
2023-01-23T11:58:53.676Z,10.30
2023-01-23T12:01:38.769Z,8.50
2023-01-23T12:04:20.543Z,7.13
2023-01-23T12:06:46.841Z,6.90
2023-01-23T12:09:17.948Z,6.90
2023-01-23T12:11:50.322Z,6.87
2023-01-23T12:14:16.617Z,6.30
2023-01-23T12:16:48.285Z,6.80
2023-01-23T12:19:27.427Z,5.93
2023-01-23T12:21:54.914Z,6.67
2023-01-23T12:24:36.107Z,6.47
2023-01-23T12:27:09.213Z,6.43
2023-01-23T12:29:44.468Z,7.17
2023-01-23T12:32:17.006Z,6.00
2023-01-23T12:34:45.592Z,5.83
2023-01-23T12:37:29.110Z,5.57
2023-01-23T12:40:08.618Z,6.07
2023-01-23T12:42:50.571Z,5.93
2023-01-23T12:45:22.049Z,4.97
2023-01-23T12:47:52.135Z,5.60
2023-01-23T12:50:24.606Z,4.73
2023-01-23T12:52:53.102Z,4.30
2023-01-23T12:55:25.834Z,4.90
2023-01-23T12:58:00.131Z,3.30
2023-01-23T13:00:43.407Z,3.83
2023-01-23T13:03:14.982Z,4.30
2023-01-23T13:05:56.131Z,4.20
2023-01-23T13:08:40.469Z,4.20
2023-01-23T13:11:40.371Z,4.50
2023-01-23T13:14:22.801Z,4.70
2023-01-23T13:16:51.037Z,4.23
2023-01-23T13:19:40.938Z,3.97
2023-01-23T13:22:26.967Z,4.20
2023-01-23T13:25:18.697Z,4.00
2023-01-23T13:27:45.517Z,3.73
2023-01-23T13:30:27.020Z,4.87
2023-01-23T13:32:54.668Z,4.43
2023-01-23T13:35:39.196Z,3.93
2023-01-23T13:38:30.216Z,3.83
2023-01-23T13:41:05.398Z,4.10
2023-01-23T13:43:46.717Z,4.30
2023-01-23T13:46:36.303Z,4.43
2023-01-23T14:21:41.819Z,4.40
2023-01-23T14:24:24.915Z,4.80
2023-01-23T14:26:52.902Z,4.87
2023-01-23T14:29:23.588Z,4.30
2023-01-23T14:31:51.257Z,3.50
2023-01-23T14:34:21.411Z,2.87
2023-01-23T14:36:51.146Z,3.03
2023-01-23T14:39:19.515Z,2.70
2023-01-23T14:41:47.548Z,2.40
2023-01-23T14:44:25.664Z,3.20
2023-01-23T14:46:55.908Z,2.73
2023-01-23T14:49:25.280Z,2.90
2023-01-23T14:52:14.971Z,3.33
2023-01-23T14:54:51.299Z,3.47
2023-01-23T14:57:20.959Z,3.17
2023-01-23T14:59:47.980Z,2.87
2023-01-23T15:02:45.924Z,3.17
2023-01-23T15:05:15.298Z,3.33
2023-01-23T15:08:03.111Z,3.40
2023-01-23T15:10:29.506Z,3.40
2023-01-23T15:13:02.351Z,4.73
2023-01-23T15:15:29.167Z,4.10
2023-01-23T15:17:56.565Z,3.83
2023-01-23T15:20:30.529Z,3.90
2023-01-23T15:22:57.321Z,3.33
2023-01-23T15:25:31.171Z,3.60
2023-01-23T15:27:57.600Z,3.97
2023-01-23T15:30:33.096Z,3.63
2023-01-23T15:33:05.975Z,3.47
2023-01-23T15:35:34.093Z,3.67
2023-01-23T15:38:04.796Z,4.10
2023-01-23T15:40:32.647Z,4.40
2023-01-23T15:43:00.442Z,4.27
2023-01-23T15:45:26.837Z,4.00
2023-01-23T15:47:53.140Z,4.07
2023-01-23T15:50:19.556Z,4.47
2023-01-23T15:52:49.919Z,5.03
2023-01-23T15:55:16.274Z,4.67
2023-01-23T15:57:43.274Z,4.00
2023-01-23T16:00:20.586Z,4.60
2023-01-23T16:02:56.191Z,4.60
2023-01-23T16:05:24.892Z,4.37
2023-01-23T16:07:51.619Z,4.67
2023-01-23T16:10:20.064Z,4.17
2023-01-23T16:12:48.789Z,4.80
2023-01-23T16:15:16.646Z,4.47
2023-01-23T16:17:43.297Z,4.80
2023-01-23T16:20:20.136Z,4.87
2023-01-23T16:22:48.977Z,4.37
2023-01-23T16:25:19.815Z,4.30
2023-01-23T16:27:46.210Z,4.57
2023-01-23T16:30:16.771Z,5.03
2023-01-23T16:32:43.259Z,4.80
2023-01-23T16:35:11.170Z,4.57
2023-01-23T16:37:38.935Z,5.20
2023-01-23T16:40:05.609Z,4.70
2023-01-23T16:42:32.773Z,4.37
2023-01-23T16:44:59.131Z,4.77
2023-01-23T16:47:25.546Z,5.20
2023-01-23T16:49:53.577Z,4.73
2023-01-23T16:52:24.470Z,4.77
2023-01-23T16:54:51.650Z,5.13
2023-01-23T16:57:19.766Z,5.30
2023-01-23T16:59:46.506Z,4.70
2023-01-23T17:02:23.089Z,5.03
2023-01-23T17:04:49.787Z,5.23
2023-01-23T17:07:17.153Z,5.20
2023-01-23T17:09:44.033Z,5.40
2023-01-23T17:12:14.103Z,5.50
2023-01-23T17:14:41.841Z,4.90
2023-01-23T17:17:11.279Z,4.70
2023-01-23T17:19:41.422Z,5.10
2023-01-23T17:22:12.808Z,6.13
2023-01-23T17:24:39.095Z,6.40
2023-01-23T17:27:05.554Z,5.90
2023-01-23T17:29:31.898Z,6.33
2023-01-23T17:31:58.439Z,6.07
2023-01-23T17:34:26.034Z,6.53
2023-01-23T17:36:52.964Z,5.73
2023-01-23T17:39:20.550Z,6.50
2023-01-23T17:41:47.015Z,4.77
2023-01-23T17:44:13.409Z,5.30
2023-01-23T17:46:39.763Z,5.20
2023-01-23T17:49:26.692Z,4.80
2023-01-23T17:51:53.472Z,5.53
2023-01-23T17:54:19.969Z,5.37
2023-01-23T17:56:46.415Z,6.13
2023-01-23T17:59:12.834Z,5.57
2023-01-23T18:01:39.139Z,5.23
2023-01-23T18:04:16.423Z,5.63
2023-01-23T18:06:42.771Z,5.83
2023-01-23T18:09:09.203Z,5.90
2023-01-23T18:11:37.023Z,6.17
2023-01-23T18:14:06.215Z,5.73
2023-01-23T18:16:34.912Z,5.40
2023-01-23T18:19:05.889Z,6.57
2023-01-23T18:21:32.516Z,6.97
2023-01-23T18:23:58.985Z,6.50
2023-01-23T18:26:46.333Z,6.03
2023-01-23T18:29:24.632Z,5.73
2023-01-23T18:32:02.431Z,6.20
2023-01-23T18:34:47.511Z,6.10
2023-01-23T18:37:24.081Z,7.17
2023-01-23T18:40:20.737Z,6.70
2023-01-23T18:42:51.768Z,6.60
2023-01-23T18:45:26.556Z,6.40
2023-01-23T18:47:53.703Z,7.23
2023-01-23T18:50:23.362Z,7.53
2023-01-23T18:53:11.792Z,7.20
2023-01-23T18:55:38.119Z,6.77
2023-01-23T18:58:14.882Z,7.40
2023-01-23T19:00:47.572Z,7.43
2023-01-23T19:03:15.685Z,8.13
2023-01-23T19:05:42.548Z,8.60
2023-01-23T19:08:20.754Z,7.03
2023-01-23T19:10:49.144Z,9.00
2023-01-23T19:13:35.871Z,8.53
2023-01-23T19:16:02.221Z,7.40
2023-01-23T19:18:40.330Z,8.10
2023-01-23T19:21:14.364Z,8.13
2023-01-23T19:23:51.670Z,8.00
2023-01-23T19:26:18.559Z,8.60
2023-01-23T19:28:45.155Z,8.43
2023-01-23T19:31:18.912Z,8.80
2023-01-23T19:33:45.323Z,8.43
2023-01-23T19:36:12.862Z,8.57
2023-01-23T19:38:39.935Z,8.80
2023-01-23T19:41:06.761Z,8.70
2023-01-23T19:43:33.195Z,9.17
2023-01-23T19:45:59.583Z,8.83
2023-01-23T19:48:25.942Z,9.07
2023-01-23T19:50:52.271Z,8.87
2023-01-23T19:53:19.341Z,9.57
2023-01-23T19:55:45.839Z,9.53
2023-01-23T19:58:12.192Z,9.30
2023-01-23T20:00:38.617Z,9.33
2023-01-23T20:03:05.034Z,9.33
2023-01-23T20:05:31.722Z,9.63
2023-01-23T20:07:58.697Z,10.10
2023-01-23T20:10:25.053Z,9.20
2023-01-23T20:12:52.231Z,10.10
2023-01-23T20:15:20.640Z,9.40
2023-01-23T20:17:47.301Z,9.70
2023-01-23T20:20:14.296Z,10.80
2023-01-23T20:22:41.778Z,9.77
2023-01-23T20:25:10.157Z,9.07
2023-01-23T20:27:37.112Z,10.70
2023-01-23T20:30:04.513Z,10.57
2023-01-23T20:32:32.063Z,10.47
2023-01-23T20:34:58.610Z,11.13
2023-01-23T20:37:25.301Z,10.67
2023-01-23T20:39:51.662Z,10.80
2023-01-23T20:42:26.596Z,10.17
2023-01-23T20:44:53.029Z,11.30
2023-01-23T20:47:20.420Z,10.17
2023-01-23T20:49:46.739Z,11.27
2023-01-23T20:52:31.961Z,11.13
2023-01-23T20:54:58.373Z,10.43
2023-01-23T20:57:44.643Z,12.27
2023-01-23T21:00:11.277Z,12.67
2023-01-23T21:02:37.587Z,11.53
2023-01-23T21:05:04.193Z,12.20
2023-01-23T21:07:30.626Z,13.00
2023-01-23T21:09:56.965Z,12.43
2023-01-23T21:12:23.508Z,12.00
2023-01-23T21:14:49.950Z,12.73
2023-01-23T21:17:16.287Z,12.33
2023-01-23T21:19:42.718Z,12.90
2023-01-23T21:22:09.015Z,12.03
2023-01-23T21:24:36.078Z,13.70
2023-01-23T21:27:04.436Z,12.80
2023-01-23T21:29:31.588Z,13.20
2023-01-23T21:31:58.116Z,13.70
2023-01-23T21:34:25.306Z,11.57
2023-01-23T21:36:51.976Z,13.13
2023-01-23T21:39:18.728Z,12.60
2023-01-23T21:41:45.138Z,11.63
2023-01-23T21:44:11.712Z,13.13
2023-01-23T21:46:38.254Z,11.67
2023-01-23T21:49:04.689Z,12.20
2023-01-23T21:51:32.300Z,13.67
2023-01-23T21:53:58.613Z,12.27
2023-01-23T21:56:25.060Z,12.73
2023-01-23T21:58:51.446Z,12.23
2023-01-23T22:01:39.395Z,13.57
2023-01-23T22:04:07.251Z,11.47
2023-01-23T22:06:33.929Z,11.37
2023-01-23T22:09:00.712Z,11.70
2023-01-23T22:11:27.161Z,12.20
2023-01-23T22:13:54.924Z,10.80
2023-01-23T22:16:28.508Z,12.03
2023-01-23T22:19:06.800Z,10.67
2023-01-23T22:21:33.234Z,11.50
2023-01-23T22:24:01.297Z,10.90
2023-01-23T22:26:27.703Z,11.53
2023-01-23T22:28:54.005Z,10.87
2023-01-23T22:31:20.433Z,11.20
2023-01-23T22:33:47.308Z,11.93
2023-01-23T22:36:15.071Z,12.03
2023-01-23T22:38:41.464Z,11.27
2023-01-23T22:41:07.795Z,11.07
2023-01-23T22:43:34.245Z,11.60
2023-01-23T22:46:27.009Z,12.10
2023-01-23T22:48:53.446Z,11.87
2023-01-23T22:51:24.223Z,11.13
2023-01-23T22:53:57.103Z,11.53
2023-01-23T22:56:24.167Z,11.03
2023-01-23T22:58:52.116Z,10.97
2023-01-23T23:01:19.196Z,11.23
2023-01-23T23:03:45.844Z,11.27
2023-01-23T23:06:13.407Z,10.70
2023-01-23T23:08:40.046Z,10.17
2023-01-23T23:11:07.889Z,11.10
2023-01-23T23:13:34.834Z,10.20
2023-01-23T23:16:08.625Z,10.50
2023-01-23T23:18:37.438Z,10.60
2023-01-23T23:21:06.322Z,10.63
2023-01-23T23:23:32.829Z,11.43
2023-01-23T23:25:59.153Z,9.83
2023-01-23T23:28:26.546Z,10.67
2023-01-23T23:30:52.944Z,11.13
2023-01-23T23:33:19.762Z,11.17
2023-01-23T23:35:46.107Z,11.30
2023-01-23T23:38:12.597Z,11.83
2023-01-23T23:40:38.968Z,10.97
2023-01-23T23:43:05.613Z,11.47
2023-01-23T23:45:32.187Z,10.93
2023-01-23T23:47:58.692Z,11.50
2023-01-23T23:50:25.023Z,10.23
2023-01-23T23:52:51.339Z,9.93
2023-01-23T23:55:17.798Z,10.83
2023-01-23T23:57:44.102Z,11.47
